Stations météo

Publicité
Neuhaus am Rennweg, Allemagne (10557): Température de l'air & dewpoint: 12.09.2018 18:00:00 - 18.09.2018 18:00:00 (CEST)Neuhaus am Rennweg, Allemagne (10557): Température de l'air 5cm & Température de l'air -5cm: 12.09.2018 18:00:00 - 18.09.2018 18:00:00 (CEST)Neuhaus am Rennweg, Allemagne (10557): Température de l'air -20cm & Température de l'air -100cm: 12.09.2018 18:00:00 - 18.09.2018 18:00:00 (CEST)Neuhaus am Rennweg, Allemagne (10557): Vitesse du vent & gusts: 12.09.2018 18:00:00 - 18.09.2018 18:00:00 (CEST)Neuhaus am Rennweg, Allemagne (10557): Direction du vent: 12.09.2018 18:00:00 - 18.09.2018 18:00:00 (CEST)Neuhaus am Rennweg, Allemagne (10557): visibility: 12.09.2018 18:00:00 - 18.09.2018 18:00:00 (CEST)Neuhaus am Rennweg, Allemagne (10557): Ensoleillement: 12.09.2018 18:00:00 - 18.09.2018 18:00:00 (CEST)Neuhaus am Rennweg, Allemagne (10557): Quantités de précipitations: 12.09.2018 18:00:00 - 18.09.2018 18:00:00 (CEST)
Date & Time tt [°C] td [°C] tt 5cm [°C] tt -5cm [°C] tt -20cm [°C] tt -100cm [°C] ff [km/h] ff [knt] fx [km/h] fx [knt] dd vv [km] sd [min] rr [mm]
18.09.2018 18:00:00 - - - - - - - - - - - - - -
18.09.2018 17:00:00 23,9 8,0 25,8 21,3 16,0 14,4 14 7 28 15 SW 48 60 0,0
18.09.2018 16:00:00 23,7 8,4 26,2 22,3 15,5 14,4 16 8 35 19 SSW 52 60 0,0
18.09.2018 15:00:00 23,5 10,7 28,2 22,0 14,9 14,4 16 9 34 19 SW 75 60 0,0
18.09.2018 14:00:00 22,7 10,6 27,3 21,0 14,4 14,4 19 11 38 20 SW 48 60 0,0
18.09.2018 13:00:00 21,8 12,3 26,5 19,6 13,9 14,4 15 8 34 18 S 33 60 0,0
18.09.2018 12:00:00 20,8 13,2 25,1 17,7 13,6 14,4 15 8 31 17 S 47 60 0,0
18.09.2018 11:00:00 19,9 13,6 23,7 15,4 13,4 14,4 16 9 31 17 SSW 38 60 0,0
18.09.2018 10:00:00 18,6 13,3 21,4 13,0 13,5 14,4 14 8 26 14 SSW 34 60 0,0
18.09.2018 09:00:00 15,8 12,5 13,5 11,2 13,6 14,4 11 6 19 10 S 33 60 0,0
18.09.2018 08:00:00 13,9 11,5 11,0 10,8 13,8 14,4 12 6 20 11 S 27 19 0,0
18.09.2018 07:00:00 13,1 11,2 9,2 10,9 13,9 14,4 13 7 19 11 S 26 0 0,0
18.09.2018 06:00:00 13,2 10,4 8,6 11,2 14,1 14,4 10 5 20 11 S 36 0 0,0
18.09.2018 05:00:00 14,0 10,2 9,9 11,3 14,4 14,4 10 6 22 12 S 48 0 0,0
18.09.2018 04:00:00 14,5 7,7 10,0 11,6 14,6 14,4 11 6 25 14 SSW 66 0 0,0
18.09.2018 03:00:00 14,1 7,1 9,5 11,9 14,8 14,4 13 7 22 12 S 59 0 0,0
18.09.2018 02:00:00 14,4 5,0 9,3 12,3 15,1 14,4 14 8 21 11 S 75 0 0,0
18.09.2018 01:00:00 14,1 3,8 8,4 12,7 15,3 14,4 13 7 20 11 S 71 0 0,0
18.09.2018 00:00:00 14,4 3,9 8,8 13,3 15,6 14,4 13 7 19 11 S 74 0 0,0
17.09.2018 23:00:00 14,6 3,9 9,0 14,0 15,8 14,4 10 5 15 8 S 70 0 0,0
17.09.2018 22:00:00 14,7 4,0 8,8 14,9 16,0 14,4 9 5 13 7 S 60 0 0,0
17.09.2018 21:00:00 15,0 4,0 9,4 16,1 16,1 14,4 9 5 11 6 S 63 0 0,0
17.09.2018 20:00:00 15,7 4,1 10,9 17,5 16,0 14,4 6 4 10 5 SSW 73 0 0,0
17.09.2018 19:00:00 18,4 5,4 15,0 18,9 15,9 14,4 5 3 12 6 SSW 50 29 0,0
17.09.2018 18:00:00 20,3 4,0 20,7 19,7 15,6 14,4 8 4 15 8 SW 59 60 0,0
17.09.2018 17:00:00 20,8 5,9 23,0 20,1 15,2 14,4 7 4 21 11 SW 50 60 0,0
17.09.2018 16:00:00 20,7 5,8 23,7 20,9 14,7 14,4 7 4 21 12 SSW 41 60 0,0
17.09.2018 15:00:00 20,7 7,7 25,6 20,3 14,1 14,4 11 6 30 16 WSW 40 60 0,0
17.09.2018 14:00:00 19,9 9,2 25,1 19,2 13,7 14,4 11 6 29 16 WSW 39 59 0,0
17.09.2018 13:00:00 19,0 12,0 22,9 17,9 13,3 14,5 9 5 26 14 SW 50 41 0,0
17.09.2018 12:00:00 18,0 11,4 20,4 16,4 12,9 14,5 12 7 21 12 S 35 37 0,0
17.09.2018 11:00:00 17,6 10,2 22,6 14,1 12,8 14,5 8 5 20 11 SSE 55 60 0,0
17.09.2018 10:00:00 15,7 8,4 19,1 11,7 12,9 14,5 7 4 18 10 S 40 60 0,0
17.09.2018 09:00:00 14,0 8,7 11,4 10,1 13,0 14,5 9 5 14 8 S 52 60 0,0
17.09.2018 08:00:00 12,3 9,4 8,7 9,7 13,2 14,5 10 5 16 8 SSW 40 24 0,0
17.09.2018 07:00:00 11,9 8,6 6,4 9,9 13,4 14,5 10 6 17 9 SSW 45 0 0,0
17.09.2018 06:00:00 12,7 7,9 7,8 10,0 13,7 14,5 13 7 19 11 SW 53 0 0,0
17.09.2018 05:00:00 12,0 6,5 6,1 10,3 13,9 14,5 11 6 18 10 SSW 75 0 0,0
17.09.2018 04:00:00 12,0 6,2 6,2 10,6 14,1 14,5 11 6 20 11 SSW 65 0 0,0
17.09.2018 03:00:00 12,3 5,2 6,9 11,0 14,4 14,5 11 6 21 12 S 54 0 0,0
17.09.2018 02:00:00 12,1 4,1 7,0 11,4 14,6 14,5 11 6 21 11 S 75 0 0,0
17.09.2018 01:00:00 11,9 3,8 6,0 12,0 14,9 14,5 10 5 17 9 SSW 72 0 0,0
17.09.2018 00:00:00 12,5 3,8 7,6 12,7 15,2 14,5 9 5 18 10 SSW 63 0 0,0
16.09.2018 23:00:00 12,5 3,7 7,3 13,4 15,4 14,5 10 6 16 9 SSW 67 0 0,0
16.09.2018 22:00:00 13,0 3,8 7,9 14,3 15,6 14,5 10 5 14 7 SW 67 0 0,0
16.09.2018 21:00:00 13,1 4,1 8,4 15,3 15,7 14,5 10 5 14 8 SW 58 0 0,0
16.09.2018 20:00:00 13,5 4,2 8,9 16,8 15,6 14,5 9 5 13 7 SSW 73 0 0,0
16.09.2018 19:00:00 16,2 5,1 13,0 18,3 15,4 14,5 7 4 14 7 SSW 72 39 0,0
16.09.2018 18:00:00 18,4 4,2 20,2 19,2 15,1 14,5 8 5 19 10 SW 75 60 0,0
16.09.2018 17:00:00 19,4 3,9 22,6 19,6 14,7 14,5 8 4 14 8 SSE 75 60 0,0
16.09.2018 16:00:00 19,0 4,3 22,8 20,4 14,1 14,5 5 3 16 9 SSE 66 60 0,0
16.09.2018 15:00:00 18,2 4,7 24,3 20,0 13,5 14,5 7 4 16 9 S 57 60 0,0
16.09.2018 14:00:00 17,5 5,0 23,8 18,8 13,0 14,5 8 4 17 9 S 66 60 0,0
16.09.2018 13:00:00 16,2 5,6 23,6 17,1 12,6 14,5 6 3 17 9 ESE 62 60 0,0
16.09.2018 12:00:00 15,3 4,5 21,8 15,1 12,3 14,5 6 3 18 10 SSE 75 60 0,0
16.09.2018 11:00:00 14,2 5,2 19,7 12,6 12,2 14,5 6 3 17 9 S 59 60 0,0
16.09.2018 10:00:00 12,7 6,0 15,9 10,2 12,3 14,5 11 6 21 11 SSE 58 60 0,0
16.09.2018 09:00:00 10,5 6,0 8,0 8,6 12,5 14,5 9 5 18 10 SSE 53 60 0,0
16.09.2018 08:00:00 8,2 6,0 4,5 8,5 12,7 14,5 8 4 13 7 SSE 66 22 0,0
16.09.2018 07:00:00 7,9 6,0 3,8 8,7 12,9 14,5 5 3 11 6 SE 48 0 0,0
16.09.2018 06:00:00 8,3 6,4 4,1 9,0 13,1 14,5 9 5 14 8 E 48 0 0,0
16.09.2018 05:00:00 8,8 6,6 5,7 9,3 13,3 14,6 13 7 14 8 ENE 41 0 0,0
16.09.2018 04:00:00 8,9 6,4 5,0 9,7 13,5 14,6 10 5 13 7 E 49 0 0,0
16.09.2018 03:00:00 9,4 6,5 6,3 10,0 13,8 14,6 10 5 11 6 NE 49 0 0,0
16.09.2018 02:00:00 8,5 5,9 5,8 10,3 14,0 14,6 8 4 13 7 NNW 64 0 0,0
16.09.2018 01:00:00 7,9 5,5 4,7 10,7 14,3 14,6 9 5 14 8 NW 57 0 0,0
16.09.2018 00:00:00 8,0 5,4 4,9 11,1 14,6 14,6 8 5 13 7 WNW 58 0 0,0
15.09.2018 23:00:00 8,0 5,2 4,2 11,7 14,8 14,6 9 5 14 7 WNW 61 0 0,0
15.09.2018 22:00:00 8,5 5,0 4,8 12,5 15,0 14,6 9 5 13 7 WNW 70 0 0,0
15.09.2018 21:00:00 9,4 4,7 5,6 13,5 15,2 14,6 9 5 13 7 W 65 0 0,0
15.09.2018 20:00:00 10,0 4,9 6,5 14,7 15,2 14,6 8 4 13 7 WNW 75 7 0,0
15.09.2018 19:00:00 12,2 5,0 10,6 15,8 15,2 14,6 9 5 16 9 W 60 7 0,0
15.09.2018 18:00:00 13,5 4,9 13,8 16,7 15,0 14,6 9 5 17 9 WSW 58 0 0,0
15.09.2018 17:00:00 13,8 4,8 15,1 17,3 14,8 14,6 12 7 27 15 WSW 70 14 0,0
15.09.2018 16:00:00 14,2 4,8 16,3 18,1 14,5 14,6 9 5 27 15 W 75 12 0,0
15.09.2018 15:00:00 15,0 4,4 21,2 17,9 14,1 14,6 16 9 29 16 WSW 54 54 0,0
15.09.2018 14:00:00 13,8 5,2 17,2 17,0 13,8 14,6 9 5 26 14 WNW 75 21 0,0
15.09.2018 13:00:00 13,6 3,7 19,0 16,1 13,6 14,6 12 6 31 17 W 72 46 0,0
15.09.2018 12:00:00 12,9 3,4 16,7 14,6 13,4 14,6 16 9 34 18 W 75 38 0,0
15.09.2018 11:00:00 12,5 3,1 16,5 13,4 13,4 14,6 19 10 31 17 W 75 59 0,0
15.09.2018 10:00:00 11,7 4,0 14,1 11,4 13,6 14,6 9 5 26 14 WNW 57 60 0,0
15.09.2018 09:00:00 9,9 5,0 8,8 10,5 13,7 14,6 10 6 18 10 WNW 44 42 0,0
15.09.2018 08:00:00 8,1 4,1 6,0 10,7 13,9 14,6 11 6 20 11 NW 47 12 0,0
15.09.2018 07:00:00 8,4 5,2 6,6 11,1 14,1 14,6 13 7 20 11 NW 39 0 0,0
15.09.2018 06:00:00 8,4 6,4 6,5 11,4 14,3 14,6 11 6 21 11 NW 24 0 0,0
15.09.2018 05:00:00 9,6 7,2 8,3 12,1 14,4 14,6 11 6 19 10 NW 39 0 0,0
15.09.2018 04:00:00 10,9 7,3 10,2 12,4 14,5 14,6 11 6 18 10 NW 54 0 0,0
15.09.2018 03:00:00 11,3 7,3 10,2 12,6 14,7 14,6 10 6 16 9 W 51 0 0,0
15.09.2018 02:00:00 11,3 7,6 9,9 12,9 14,8 14,6 11 6 18 10 WNW 53 0 0,0
15.09.2018 01:00:00 11,6 8,0 10,9 13,2 15,0 14,6 13 7 18 10 WNW 54 0 0,0
15.09.2018 00:00:00 11,4 9,0 9,7 13,6 15,1 14,6 9 5 16 9 WNW 46 0 0,0
14.09.2018 23:00:00 12,2 9,2 11,1 13,9 15,2 14,6 11 6 20 11 W 51 0 0,0
14.09.2018 22:00:00 12,6 10,1 11,8 14,3 15,3 14,6 11 6 18 10 W 51 0 0,0
14.09.2018 21:00:00 12,5 9,9 11,3 14,8 15,4 14,6 11 6 18 10 WSW 43 0 0,0
14.09.2018 20:00:00 13,3 10,1 12,1 15,7 15,4 14,6 8 4 13 7 WSW 49 0 0,0
14.09.2018 19:00:00 14,3 10,2 13,9 16,4 15,3 14,6 6 4 16 9 WSW 50 0 0,0
14.09.2018 18:00:00 14,8 9,9 15,6 17,0 15,1 14,6 9 5 20 11 WSW 46 0 0,0
14.09.2018 17:00:00 15,4 9,8 17,1 17,3 14,9 14,6 11 6 19 11 WSW 49 1 0,0
14.09.2018 16:00:00 15,4 9,6 17,3 17,4 14,7 14,6 11 6 19 11 SW 54 13 0,0
14.09.2018 15:00:00 14,7 10,1 17,1 16,7 14,5 14,6 6 3 15 8 SW 75 3 0,0
14.09.2018 14:00:00 13,8 10,4 15,5 15,9 14,4 14,6 6 3 12 6 SSW 69 1 0,0
14.09.2018 13:00:00 12,6 10,9 14,1 14,8 14,3 14,6 4 2 7 4 W 61 0 0,0
14.09.2018 12:00:00 12,6 10,9 13,9 15,1 14,2 14,6 4 2 12 7 E 54 1 0,0
14.09.2018 11:00:00 11,9 10,4 14,2 14,0 14,1 14,6 6 3 9 5 E 53 0 0,0
14.09.2018 10:00:00 11,0 10,6 12,2 13,0 14,2 14,6 6 3 11 6 E 35 0 0,0
14.09.2018 09:00:00 10,5 10,4 11,0 12,7 14,3 14,6 5 3 15 8 E 10 0 0,0
14.09.2018 08:00:00 10,4 10,3 10,9 12,6 14,3 14,6 6 4 17 9 NE 0,4 0 0,0
14.09.2018 07:00:00 10,5 10,5 10,7 12,7 14,4 14,6 9 5 16 8 NNE 0,1 0 0,0
14.09.2018 06:00:00 10,5 10,3 10,7 12,8 14,5 14,6 7 4 15 8 N 0,4 0 0,0
14.09.2018 05:00:00 10,4 10,3 10,6 12,9 14,6 14,6 7 4 16 8 NNE 1,3 0 0,0
14.09.2018 04:00:00 10,4 10,4 10,7 13,0 14,7 14,6 6 3 13 7 NNE 0,7 0 0,0
14.09.2018 03:00:00 10,4 10,4 10,7 13,1 14,8 14,6 6 4 17 9 NNE 0,3 0 0,0
14.09.2018 02:00:00 10,5 10,5 10,8 13,3 14,9 14,6 8 4 15 8 NNE 0,3 0 0,0
14.09.2018 01:00:00 10,7 10,7 11,0 13,5 15,0 14,6 8 4 19 10 NNE 0,2 0 0,0
14.09.2018 00:00:00 10,8 10,8 11,1 13,7 15,1 14,6 9 5 16 9 NNE 0,1 0 0,0
13.09.2018 23:00:00 10,9 10,9 11,2 13,9 15,2 14,6 8 5 18 10 N 0,3 0 0,0
13.09.2018 22:00:00 11,0 10,9 11,3 14,2 15,3 14,6 9 5 18 10 N 0,1 0 0,0
13.09.2018 21:00:00 11,2 11,1 11,6 14,6 15,4 14,6 8 4 13 7 NNE 0,2 0 0,0
13.09.2018 20:00:00 11,4 11,3 11,8 15,0 15,4 14,6 6 4 13 7 N 0,1 0 0,0
13.09.2018 19:00:00 11,6 11,4 12,2 15,5 15,4 14,6 9 5 16 9 N 0,2 0 0,0
13.09.2018 18:00:00 11,9 11,6 12,8 16,0 15,4 14,6 8 5 16 8 N 0,3 0 0,0
13.09.2018 17:00:00 12,1 11,6 13,7 16,3 15,3 14,6 8 5 18 10 NNE 2,0 0 0,0
13.09.2018 16:00:00 12,2 11,5 14,0 16,5 15,2 14,6 10 5 17 9 N 1,0 0 0,0
13.09.2018 15:00:00 12,2 11,5 14,9 16,5 15,0 14,6 11 6 19 11 N 3,1 0 0,0
13.09.2018 14:00:00 12,5 12,0 15,8 16,0 14,9 14,6 9 5 16 9 NNW 2,7 0 0,0
13.09.2018 13:00:00 12,1 11,8 14,1 15,5 14,8 14,6 8 4 15 8 N 2,5 0 0,0
13.09.2018 12:00:00 11,5 11,4 13,4 14,9 14,8 14,6 6 3 13 7 N 0,1 0 0,0
13.09.2018 11:00:00 11,7 11,7 13,5 14,5 14,8 14,6 8 4 14 8 N 0,7 0 0,0
13.09.2018 10:00:00 11,3 11,2 12,9 13,7 14,9 14,6 7 4 18 10 NE 0,2 0 0,0
13.09.2018 09:00:00 10,8 10,8 11,8 13,2 15,0 14,6 14 8 21 11 ENE 0,1 0 0,0
13.09.2018 08:00:00 10,4 10,4 10,9 13,1 15,1 14,6 13 7 26 14 NE 0,1 0 0,0
13.09.2018 07:00:00 10,2 10,2 10,5 13,3 15,2 14,6 13 7 25 13 NE 0,1 0 0,0
13.09.2018 06:00:00 10,7 10,7 11,0 13,5 15,4 14,6 12 6 25 14 NNE 0,1 0 0,0
13.09.2018 05:00:00 11,1 11,0 11,4 13,7 15,6 14,6 8 5 25 14 ENE 0,8 0 0,0
13.09.2018 04:00:00 11,2 11,1 11,5 13,8 15,7 14,6 11 6 27 15 NE 0,6 0 0,0
13.09.2018 03:00:00 11,3 10,9 11,0 14,2 15,9 14,6 13 7 29 16 NE 5 0 0,0
13.09.2018 02:00:00 11,9 11,7 12,1 14,5 16,1 14,6 16 9 31 17 NE 0,9 0 0,0
13.09.2018 01:00:00 12,5 12,0 12,4 14,7 16,3 14,6 16 9 32 17 NE 5 0 0,0
13.09.2018 00:00:00 13,2 12,0 12,1 15,1 16,5 14,6 14 8 28 15 NE 18 0 0,0
12.09.2018 23:00:00 14,4 11,9 13,1 15,7 16,7 14,6 14 7 31 17 N 36 0 0,0
12.09.2018 22:00:00 16,6 10,6 14,5 16,5 16,8 14,6 18 10 33 18 NNW 51 0 0,0
12.09.2018 21:00:00 18,4 7,7 12,3 17,5 16,9 14,6 8 4 20 11 W 69 0 0,0
12.09.2018 20:00:00 20,2 7,9 15,9 18,6 16,9 14,6 11 6 22 12 WSW 53 23 0,0
12.09.2018 19:00:00 22,2 7,6 19,9 19,8 16,7 14,6 14 8 28 15 WSW 60 59 0,0
12.09.2018 18:00:00 23,2 8,2 24,0 20,5 16,4 14,6 18 10 34 19 WSW 58 60 0,0

tt = Température de l'air
td = dewpoint
tt 5cm = Température de l'air 5cm
tt -5cm = Température de l'air -5cm
tt -20cm = Température de l'air -20cm
tt -100cm = Température de l'air -100cm
ff = Vitesse du vent
fx = gusts
dd = Direction du vent
vv = visibility
sd = Ensoleillement
rr = Quantités de précipitations

stations d'obs. à proximité